sensor_id;sensor_type;location;lat;lon;timestamp;P1;durP1;ratioP1;P2;durP2;ratioP2
71558;SDS011;59382;43.852;25.952;2023-05-07T00:01:49;2.90;;;2.20;;
71558;SDS011;59382;43.852;25.952;2023-05-07T00:04:15;3.92;;;2.80;;
71558;SDS011;59382;43.852;25.952;2023-05-07T00:06:40;6.55;;;2.47;;
71558;SDS011;59382;43.852;25.952;2023-05-07T00:09:06;4.05;;;2.50;;
71558;SDS011;59382;43.852;25.952;2023-05-07T00:11:32;3.67;;;2.67;;
71558;SDS011;59382;43.852;25.952;2023-05-07T00:13:58;7.57;;;2.80;;
71558;SDS011;59382;43.852;25.952;2023-05-07T00:16:24;3.50;;;2.70;;
71558;SDS011;59382;43.852;25.952;2023-05-07T00:18:50;5.45;;;2.63;;
71558;SDS011;59382;43.852;25.952;2023-05-07T00:21:17;4.35;;;3.00;;
71558;SDS011;59382;43.852;25.952;2023-05-07T00:23:42;3.08;;;2.72;;
71558;SDS011;59382;43.852;25.952;2023-05-07T00:26:08;10.15;;;3.17;;
71558;SDS011;59382;43.852;25.952;2023-05-07T00:28:33;4.63;;;2.90;;
71558;SDS011;59382;43.852;25.952;2023-05-07T00:30:59;5.13;;;3.55;;
71558;SDS011;59382;43.852;25.952;2023-05-07T00:33:24;6.45;;;3.05;;
71558;SDS011;59382;43.852;25.952;2023-05-07T00:35:51;6.60;;;2.80;;
71558;SDS011;59382;43.852;25.952;2023-05-07T00:38:17;6.72;;;3.50;;
71558;SDS011;59382;43.852;25.952;2023-05-07T00:40:43;5.13;;;3.08;;
71558;SDS011;59382;43.852;25.952;2023-05-07T00:43:08;5.97;;;3.17;;
71558;SDS011;59382;43.852;25.952;2023-05-07T00:45:34;8.73;;;3.50;;
71558;SDS011;59382;43.852;25.952;2023-05-07T00:48:00;6.07;;;3.08;;
71558;SDS011;59382;43.852;25.952;2023-05-07T00:50:27;6.38;;;3.15;;
71558;SDS011;59382;43.852;25.952;2023-05-07T00:52:54;5.25;;;3.33;;
71558;SDS011;59382;43.852;25.952;2023-05-07T00:55:20;9.32;;;3.22;;
71558;SDS011;59382;43.852;25.952;2023-05-07T00:57:46;4.75;;;3.22;;
71558;SDS011;59382;43.852;25.952;2023-05-07T01:00:12;7.47;;;3.50;;
71558;SDS011;59382;43.852;25.952;2023-05-07T01:02:38;4.40;;;3.08;;
71558;SDS011;59382;43.852;25.952;2023-05-07T01:05:04;6.50;;;2.90;;
71558;SDS011;59382;43.852;25.952;2023-05-07T01:07:32;6.78;;;3.95;;
71558;SDS011;59382;43.852;25.952;2023-05-07T01:09:59;9.15;;;3.13;;
71558;SDS011;59382;43.852;25.952;2023-05-07T01:12:26;3.75;;;2.90;;
71558;SDS011;59382;43.852;25.952;2023-05-07T01:14:54;4.10;;;3.03;;
71558;SDS011;59382;43.852;25.952;2023-05-07T01:17:20;4.30;;;3.08;;
71558;SDS011;59382;43.852;25.952;2023-05-07T01:19:46;5.47;;;3.08;;
71558;SDS011;59382;43.852;25.952;2023-05-07T01:22:12;4.75;;;3.10;;
71558;SDS011;59382;43.852;25.952;2023-05-07T01:24:41;7.40;;;3.25;;
71558;SDS011;59382;43.852;25.952;2023-05-07T01:27:07;4.32;;;3.25;;
71558;SDS011;59382;43.852;25.952;2023-05-07T01:29:32;5.63;;;2.75;;
71558;SDS011;59382;43.852;25.952;2023-05-07T01:31:58;8.68;;;3.40;;
71558;SDS011;59382;43.852;25.952;2023-05-07T01:34:25;4.10;;;2.67;;
71558;SDS011;59382;43.852;25.952;2023-05-07T01:36:53;4.28;;;2.90;;
71558;SDS011;59382;43.852;25.952;2023-05-07T01:39:22;3.92;;;3.10;;
71558;SDS011;59382;43.852;25.952;2023-05-07T01:41:53;7.00;;;3.20;;
71558;SDS011;59382;43.852;25.952;2023-05-07T01:44:21;3.20;;;2.63;;
71558;SDS011;59382;43.852;25.952;2023-05-07T01:46:47;4.35;;;3.30;;
71558;SDS011;59382;43.852;25.952;2023-05-07T01:49:13;4.78;;;2.90;;
71558;SDS011;59382;43.852;25.952;2023-05-07T01:51:39;5.22;;;2.72;;
71558;SDS011;59382;43.852;25.952;2023-05-07T01:54:05;3.03;;;2.72;;
71558;SDS011;59382;43.852;25.952;2023-05-07T01:56:31;4.82;;;3.20;;
71558;SDS011;59382;43.852;25.952;2023-05-07T01:58:57;3.35;;;3.00;;
71558;SDS011;59382;43.852;25.952;2023-05-07T02:01:22;4.05;;;2.92;;
71558;SDS011;59382;43.852;25.952;2023-05-07T02:03:48;4.07;;;2.95;;
71558;SDS011;59382;43.852;25.952;2023-05-07T02:06:14;3.55;;;3.08;;
71558;SDS011;59382;43.852;25.952;2023-05-07T02:08:39;3.00;;;2.63;;
71558;SDS011;59382;43.852;25.952;2023-05-07T02:11:05;10.50;;;3.30;;
71558;SDS011;59382;43.852;25.952;2023-05-07T02:13:31;4.70;;;3.15;;
71558;SDS011;59382;43.852;25.952;2023-05-07T02:15:57;4.05;;;2.90;;
71558;SDS011;59382;43.852;25.952;2023-05-07T02:18:23;4.00;;;2.95;;
71558;SDS011;59382;43.852;25.952;2023-05-07T02:20:48;4.82;;;3.20;;
71558;SDS011;59382;43.852;25.952;2023-05-07T02:23:14;5.07;;;3.47;;
71558;SDS011;59382;43.852;25.952;2023-05-07T02:25:39;10.32;;;4.45;;
71558;SDS011;59382;43.852;25.952;2023-05-07T02:28:05;4.45;;;3.60;;
71558;SDS011;59382;43.852;25.952;2023-05-07T02:30:31;7.55;;;3.10;;
71558;SDS011;59382;43.852;25.952;2023-05-07T02:32:57;6.05;;;3.35;;
71558;SDS011;59382;43.852;25.952;2023-05-07T02:35:23;4.28;;;3.50;;
71558;SDS011;59382;43.852;25.952;2023-05-07T02:37:49;4.78;;;3.42;;
71558;SDS011;59382;43.852;25.952;2023-05-07T02:40:15;8.02;;;3.22;;
71558;SDS011;59382;43.852;25.952;2023-05-07T02:42:40;4.63;;;3.60;;
71558;SDS011;59382;43.852;25.952;2023-05-07T02:45:06;4.55;;;3.60;;
71558;SDS011;59382;43.852;25.952;2023-05-07T02:47:32;4.07;;;3.67;;
71558;SDS011;59382;43.852;25.952;2023-05-07T02:49:58;7.10;;;3.33;;
71558;SDS011;59382;43.852;25.952;2023-05-07T02:52:23;5.07;;;2.95;;
71558;SDS011;59382;43.852;25.952;2023-05-07T02:54:49;4.38;;;2.70;;
71558;SDS011;59382;43.852;25.952;2023-05-07T02:57:14;6.05;;;3.13;;
71558;SDS011;59382;43.852;25.952;2023-05-07T02:59:41;5.93;;;3.50;;
71558;SDS011;59382;43.852;25.952;2023-05-07T03:02:07;4.20;;;3.22;;
71558;SDS011;59382;43.852;25.952;2023-05-07T03:04:33;3.83;;;3.28;;
71558;SDS011;59382;43.852;25.952;2023-05-07T03:06:58;5.68;;;3.25;;
71558;SDS011;59382;43.852;25.952;2023-05-07T03:09:24;5.57;;;3.03;;
71558;SDS011;59382;43.852;25.952;2023-05-07T03:11:49;4.30;;;3.17;;
71558;SDS011;59382;43.852;25.952;2023-05-07T03:14:15;5.45;;;3.45;;
71558;SDS011;59382;43.852;25.952;2023-05-07T03:16:40;6.38;;;3.45;;
71558;SDS011;59382;43.852;25.952;2023-05-07T03:19:06;4.82;;;3.05;;
71558;SDS011;59382;43.852;25.952;2023-05-07T03:21:31;4.95;;;3.00;;
71558;SDS011;59382;43.852;25.952;2023-05-07T03:23:58;4.35;;;3.25;;
71558;SDS011;59382;43.852;25.952;2023-05-07T03:26:24;6.40;;;3.45;;
71558;SDS011;59382;43.852;25.952;2023-05-07T03:28:50;5.63;;;2.88;;
71558;SDS011;59382;43.852;25.952;2023-05-07T03:31:16;4.32;;;3.00;;
71558;SDS011;59382;43.852;25.952;2023-05-07T03:33:52;4.10;;;3.15;;
71558;SDS011;59382;43.852;25.952;2023-05-07T03:36:21;4.88;;;3.35;;
71558;SDS011;59382;43.852;25.952;2023-05-07T03:38:48;7.90;;;2.50;;
71558;SDS011;59382;43.852;25.952;2023-05-07T03:41:14;5.35;;;2.65;;
71558;SDS011;59382;43.852;25.952;2023-05-07T03:43:40;7.13;;;4.45;;
71558;SDS011;59382;43.852;25.952;2023-05-07T03:46:06;4.85;;;3.60;;
71558;SDS011;59382;43.852;25.952;2023-05-07T03:48:31;6.72;;;2.80;;
71558;SDS011;59382;43.852;25.952;2023-05-07T03:50:57;3.75;;;3.35;;
71558;SDS011;59382;43.852;25.952;2023-05-07T03:53:23;5.80;;;2.67;;
71558;SDS011;59382;43.852;25.952;2023-05-07T03:55:49;2.80;;;2.60;;
71558;SDS011;59382;43.852;25.952;2023-05-07T03:58:15;3.45;;;2.72;;
71558;SDS011;59382;43.852;25.952;2023-05-07T04:00:41;3.55;;;2.70;;
71558;SDS011;59382;43.852;25.952;2023-05-07T04:03:07;5.90;;;2.38;;
71558;SDS011;59382;43.852;25.952;2023-05-07T04:05:32;4.40;;;2.65;;
71558;SDS011;59382;43.852;25.952;2023-05-07T04:07:59;6.45;;;2.83;;
71558;SDS011;59382;43.852;25.952;2023-05-07T04:10:25;8.65;;;2.70;;
71558;SDS011;59382;43.852;25.952;2023-05-07T04:12:51;4.20;;;2.70;;
71558;SDS011;59382;43.852;25.952;2023-05-07T04:15:16;4.43;;;2.50;;
71558;SDS011;59382;43.852;25.952;2023-05-07T04:17:42;3.35;;;2.22;;
71558;SDS011;59382;43.852;25.952;2023-05-07T04:20:14;4.32;;;2.30;;
71558;SDS011;59382;43.852;25.952;2023-05-07T04:22:41;3.55;;;2.70;;
71558;SDS011;59382;43.852;25.952;2023-05-07T04:25:06;5.47;;;2.95;;
71558;SDS011;59382;43.852;25.952;2023-05-07T04:27:34;5.88;;;3.08;;
71558;SDS011;59382;43.852;25.952;2023-05-07T04:30:00;5.22;;;2.42;;
71558;SDS011;59382;43.852;25.952;2023-05-07T04:32:27;6.82;;;2.95;;
71558;SDS011;59382;43.852;25.952;2023-05-07T04:34:58;5.45;;;2.85;;
71558;SDS011;59382;43.852;25.952;2023-05-07T04:37:24;3.78;;;2.60;;
71558;SDS011;59382;43.852;25.952;2023-05-07T04:39:51;3.22;;;2.67;;
71558;SDS011;59382;43.852;25.952;2023-05-07T04:42:16;6.60;;;2.33;;
71558;SDS011;59382;43.852;25.952;2023-05-07T04:44:45;4.40;;;3.00;;
71558;SDS011;59382;43.852;25.952;2023-05-07T04:47:11;2.50;;;2.30;;
71558;SDS011;59382;43.852;25.952;2023-05-07T04:49:38;3.42;;;2.92;;
71558;SDS011;59382;43.852;25.952;2023-05-07T04:52:04;8.10;;;3.58;;
71558;SDS011;59382;43.852;25.952;2023-05-07T04:54:30;4.72;;;3.50;;
71558;SDS011;59382;43.852;25.952;2023-05-07T04:56:55;4.53;;;3.20;;
71558;SDS011;59382;43.852;25.952;2023-05-07T04:59:21;13.32;;;3.35;;
71558;SDS011;59382;43.852;25.952;2023-05-07T05:01:47;5.13;;;2.60;;
71558;SDS011;59382;43.852;25.952;2023-05-07T05:04:12;5.60;;;3.30;;
71558;SDS011;59382;43.852;25.952;2023-05-07T05:06:38;10.63;;;3.22;;
71558;SDS011;59382;43.852;25.952;2023-05-07T05:09:04;6.45;;;2.92;;
71558;SDS011;59382;43.852;25.952;2023-05-07T05:11:30;3.92;;;3.15;;
71558;SDS011;59382;43.852;25.952;2023-05-07T05:13:56;4.43;;;3.35;;
71558;SDS011;59382;43.852;25.952;2023-05-07T05:16:21;6.28;;;4.10;;
71558;SDS011;59382;43.852;25.952;2023-05-07T05:18:50;4.28;;;3.88;;
71558;SDS011;59382;43.852;25.952;2023-05-07T05:21:17;6.97;;;3.45;;
71558;SDS011;59382;43.852;25.952;2023-05-07T05:23:42;5.07;;;3.78;;
71558;SDS011;59382;43.852;25.952;2023-05-07T05:26:08;5.80;;;3.72;;
71558;SDS011;59382;43.852;25.952;2023-05-07T05:28:39;7.57;;;4.05;;
71558;SDS011;59382;43.852;25.952;2023-05-07T05:31:05;5.35;;;3.33;;
71558;SDS011;59382;43.852;25.952;2023-05-07T05:33:31;6.72;;;3.85;;
71558;SDS011;59382;43.852;25.952;2023-05-07T05:35:56;7.78;;;3.78;;
71558;SDS011;59382;43.852;25.952;2023-05-07T05:38:22;5.10;;;3.55;;
71558;SDS011;59382;43.852;25.952;2023-05-07T05:40:47;7.70;;;4.13;;
71558;SDS011;59382;43.852;25.952;2023-05-07T05:43:13;6.05;;;3.42;;
71558;SDS011;59382;43.852;25.952;2023-05-07T05:45:39;8.55;;;4.05;;
71558;SDS011;59382;43.852;25.952;2023-05-07T05:48:05;7.75;;;3.63;;
71558;SDS011;59382;43.852;25.952;2023-05-07T05:50:31;6.57;;;3.90;;
71558;SDS011;59382;43.852;25.952;2023-05-07T05:52:56;8.15;;;3.67;;
71558;SDS011;59382;43.852;25.952;2023-05-07T05:55:22;6.72;;;3.50;;
71558;SDS011;59382;43.852;25.952;2023-05-07T05:57:49;18.00;;;5.10;;
71558;SDS011;59382;43.852;25.952;2023-05-07T06:00:15;15.73;;;5.55;;
71558;SDS011;59382;43.852;25.952;2023-05-07T06:02:41;18.17;;;5.40;;
71558;SDS011;59382;43.852;25.952;2023-05-07T06:05:08;11.38;;;4.20;;
71558;SDS011;59382;43.852;25.952;2023-05-07T06:07:34;7.57;;;4.07;;
71558;SDS011;59382;43.852;25.952;2023-05-07T06:10:00;7.47;;;3.72;;
71558;SDS011;59382;43.852;25.952;2023-05-07T06:12:26;8.82;;;3.75;;
71558;SDS011;59382;43.852;25.952;2023-05-07T06:14:51;12.05;;;3.75;;
71558;SDS011;59382;43.852;25.952;2023-05-07T06:17:17;8.38;;;3.90;;
71558;SDS011;59382;43.852;25.952;2023-05-07T06:19:42;10.07;;;3.72;;
71558;SDS011;59382;43.852;25.952;2023-05-07T06:22:08;5.03;;;3.42;;
71558;SDS011;59382;43.852;25.952;2023-05-07T06:24:33;7.93;;;3.25;;
71558;SDS011;59382;43.852;25.952;2023-05-07T06:26:59;9.35;;;4.10;;
71558;SDS011;59382;43.852;25.952;2023-05-07T06:29:25;13.27;;;3.63;;
71558;SDS011;59382;43.852;25.952;2023-05-07T06:31:54;16.77;;;4.40;;
71558;SDS011;59382;43.852;25.952;2023-05-07T06:34:19;7.28;;;3.90;;
71558;SDS011;59382;43.852;25.952;2023-05-07T06:36:44;6.57;;;3.25;;
71558;SDS011;59382;43.852;25.952;2023-05-07T06:39:10;4.63;;;2.78;;
71558;SDS011;59382;43.852;25.952;2023-05-07T06:41:35;6.88;;;3.42;;
71558;SDS011;59382;43.852;25.952;2023-05-07T06:44:01;8.85;;;3.13;;
71558;SDS011;59382;43.852;25.952;2023-05-07T06:46:28;7.05;;;3.03;;
71558;SDS011;59382;43.852;25.952;2023-05-07T06:48:54;4.28;;;3.55;;
71558;SDS011;59382;43.852;25.952;2023-05-07T06:51:19;6.28;;;3.20;;
71558;SDS011;59382;43.852;25.952;2023-05-07T06:53:45;3.65;;;2.20;;
71558;SDS011;59382;43.852;25.952;2023-05-07T06:56:10;5.30;;;2.45;;
71558;SDS011;59382;43.852;25.952;2023-05-07T06:58:36;5.00;;;2.53;;
71558;SDS011;59382;43.852;25.952;2023-05-07T07:01:02;6.43;;;2.42;;
71558;SDS011;59382;43.852;25.952;2023-05-07T07:03:27;3.60;;;2.25;;
71558;SDS011;59382;43.852;25.952;2023-05-07T07:05:53;3.85;;;2.67;;
71558;SDS011;59382;43.852;25.952;2023-05-07T07:08:20;9.25;;;2.30;;
71558;SDS011;59382;43.852;25.952;2023-05-07T07:10:47;4.53;;;1.88;;
71558;SDS011;59382;43.852;25.952;2023-05-07T07:13:15;1.88;;;1.77;;
71558;SDS011;59382;43.852;25.952;2023-05-07T07:15:41;2.20;;;1.67;;
71558;SDS011;59382;43.852;25.952;2023-05-07T07:18:06;3.50;;;2.55;;
71558;SDS011;59382;43.852;25.952;2023-05-07T07:20:32;2.83;;;1.55;;
71558;SDS011;59382;43.852;25.952;2023-05-07T07:22:57;6.28;;;1.50;;
71558;SDS011;59382;43.852;25.952;2023-05-07T07:25:23;7.57;;;1.77;;
71558;SDS011;59382;43.852;25.952;2023-05-07T07:27:49;1.88;;;1.40;;
71558;SDS011;59382;43.852;25.952;2023-05-07T07:30:15;6.45;;;1.77;;
71558;SDS011;59382;43.852;25.952;2023-05-07T07:32:40;2.35;;;1.50;;
71558;SDS011;59382;43.852;25.952;2023-05-07T07:35:07;7.18;;;1.83;;
71558;SDS011;59382;43.852;25.952;2023-05-07T07:37:32;6.38;;;1.63;;
71558;SDS011;59382;43.852;25.952;2023-05-07T07:39:58;16.65;;;2.17;;
71558;SDS011;59382;43.852;25.952;2023-05-07T07:42:23;12.88;;;2.15;;
71558;SDS011;59382;43.852;25.952;2023-05-07T07:44:49;3.97;;;1.80;;
71558;SDS011;59382;43.852;25.952;2023-05-07T07:47:15;2.30;;;1.65;;
71558;SDS011;59382;43.852;25.952;2023-05-07T07:49:40;3.75;;;1.67;;
71558;SDS011;59382;43.852;25.952;2023-05-07T07:52:06;4.47;;;2.80;;
71558;SDS011;59382;43.852;25.952;2023-05-07T07:54:32;5.25;;;2.83;;
71558;SDS011;59382;43.852;25.952;2023-05-07T07:56:57;6.07;;;2.05;;
71558;SDS011;59382;43.852;25.952;2023-05-07T07:59:23;3.15;;;1.80;;
71558;SDS011;59382;43.852;25.952;2023-05-07T08:01:49;3.85;;;1.80;;
71558;SDS011;59382;43.852;25.952;2023-05-07T08:04:17;5.22;;;2.58;;
71558;SDS011;59382;43.852;25.952;2023-05-07T08:06:42;3.53;;;1.83;;
71558;SDS011;59382;43.852;25.952;2023-05-07T08:09:08;2.70;;;1.60;;
71558;SDS011;59382;43.852;25.952;2023-05-07T08:11:33;2.30;;;1.77;;
71558;SDS011;59382;43.852;25.952;2023-05-07T08:13:59;1.50;;;1.40;;
71558;SDS011;59382;43.852;25.952;2023-05-07T08:16:25;5.45;;;1.65;;
71558;SDS011;59382;43.852;25.952;2023-05-07T08:18:51;3.78;;;1.83;;
71558;SDS011;59382;43.852;25.952;2023-05-07T08:21:16;5.43;;;1.65;;
71558;SDS011;59382;43.852;25.952;2023-05-07T08:23:42;3.10;;;1.58;;
71558;SDS011;59382;43.852;25.952;2023-05-07T08:26:08;4.75;;;1.80;;
71558;SDS011;59382;43.852;25.952;2023-05-07T08:28:34;4.38;;;2.33;;
71558;SDS011;59382;43.852;25.952;2023-05-07T08:31:00;3.45;;;2.10;;
71558;SDS011;59382;43.852;25.952;2023-05-07T08:33:26;3.58;;;1.80;;
71558;SDS011;59382;43.852;25.952;2023-05-07T08:35:54;8.32;;;2.35;;
71558;SDS011;59382;43.852;25.952;2023-05-07T08:38:20;3.28;;;1.48;;
71558;SDS011;59382;43.852;25.952;2023-05-07T08:40:46;5.72;;;1.55;;
71558;SDS011;59382;43.852;25.952;2023-05-07T08:43:12;7.00;;;2.15;;
71558;SDS011;59382;43.852;25.952;2023-05-07T08:45:39;8.07;;;3.67;;
71558;SDS011;59382;43.852;25.952;2023-05-07T08:48:08;7.55;;;2.60;;
71558;SDS011;59382;43.852;25.952;2023-05-07T08:50:39;3.10;;;2.20;;
71558;SDS011;59382;43.852;25.952;2023-05-07T08:53:04;5.90;;;2.00;;
71558;SDS011;59382;43.852;25.952;2023-05-07T08:55:30;5.38;;;2.05;;
71558;SDS011;59382;43.852;25.952;2023-05-07T08:57:58;3.53;;;2.08;;
71558;SDS011;59382;43.852;25.952;2023-05-07T09:00:24;4.78;;;1.60;;
71558;SDS011;59382;43.852;25.952;2023-05-07T09:02:50;5.78;;;1.80;;
71558;SDS011;59382;43.852;25.952;2023-05-07T09:05:15;8.95;;;1.80;;
71558;SDS011;59382;43.852;25.952;2023-05-07T09:07:41;10.43;;;2.30;;
71558;SDS011;59382;43.852;25.952;2023-05-07T09:10:11;7.20;;;2.38;;
71558;SDS011;59382;43.852;25.952;2023-05-07T09:12:36;8.25;;;2.38;;
71558;SDS011;59382;43.852;25.952;2023-05-07T09:15:03;10.60;;;5.28;;
71558;SDS011;59382;43.852;25.952;2023-05-07T09:17:29;14.50;;;6.18;;
71558;SDS011;59382;43.852;25.952;2023-05-07T09:19:54;26.27;;;10.55;;
71558;SDS011;59382;43.852;25.952;2023-05-07T09:22:22;15.90;;;6.30;;
71558;SDS011;59382;43.852;25.952;2023-05-07T09:24:48;14.43;;;6.40;;
71558;SDS011;59382;43.852;25.952;2023-05-07T09:27:26;49.10;;;19.75;;
71558;SDS011;59382;43.852;25.952;2023-05-07T09:29:55;62.53;;;24.63;;
71558;SDS011;59382;43.852;25.952;2023-05-07T09:32:21;30.17;;;13.68;;
71558;SDS011;59382;43.852;25.952;2023-05-07T09:34:50;29.52;;;15.00;;
71558;SDS011;59382;43.852;25.952;2023-05-07T09:37:15;21.55;;;9.55;;
71558;SDS011;59382;43.852;25.952;2023-05-07T09:39:48;12.07;;;6.38;;
71558;SDS011;59382;43.852;25.952;2023-05-07T09:42:16;64.60;;;36.17;;
71558;SDS011;59382;43.852;25.952;2023-05-07T09:44:42;46.53;;;25.05;;
71558;SDS011;59382;43.852;25.952;2023-05-07T09:47:08;13.93;;;7.57;;
71558;SDS011;59382;43.852;25.952;2023-05-07T09:49:37;10.77;;;6.10;;
71558;SDS011;59382;43.852;25.952;2023-05-07T09:52:05;32.00;;;16.85;;
71558;SDS011;59382;43.852;25.952;2023-05-07T09:54:33;7.35;;;3.15;;
71558;SDS011;59382;43.852;25.952;2023-05-07T09:57:03;4.93;;;2.00;;
71558;SDS011;59382;43.852;25.952;2023-05-07T09:59:33;12.57;;;5.32;;
71558;SDS011;59382;43.852;25.952;2023-05-07T10:02:00;8.18;;;5.28;;
71558;SDS011;59382;43.852;25.952;2023-05-07T10:04:26;10.30;;;3.47;;
71558;SDS011;59382;43.852;25.952;2023-05-07T10:06:52;3.85;;;2.63;;
71558;SDS011;59382;43.852;25.952;2023-05-07T10:09:19;4.90;;;1.65;;
71558;SDS011;59382;43.852;25.952;2023-05-07T10:11:45;2.63;;;1.30;;
71558;SDS011;59382;43.852;25.952;2023-05-07T10:14:13;7.43;;;1.85;;
71558;SDS011;59382;43.852;25.952;2023-05-07T10:16:39;2.53;;;1.40;;
71558;SDS011;59382;43.852;25.952;2023-05-07T10:19:07;2.55;;;1.60;;
71558;SDS011;59382;43.852;25.952;2023-05-07T10:21:36;2.50;;;1.50;;
71558;SDS011;59382;43.852;25.952;2023-05-07T10:24:05;4.40;;;2.83;;
71558;SDS011;59382;43.852;25.952;2023-05-07T10:26:40;3.72;;;1.60;;
71558;SDS011;59382;43.852;25.952;2023-05-07T10:29:12;4.15;;;1.55;;
71558;SDS011;59382;43.852;25.952;2023-05-07T10:34:24;4.00;;;1.58;;
71558;SDS011;59382;43.852;25.952;2023-05-07T10:36:53;2.00;;;1.10;;
71558;SDS011;59382;43.852;25.952;2023-05-07T10:39:21;4.60;;;1.35;;
71558;SDS011;59382;43.852;25.952;2023-05-07T10:41:48;2.75;;;1.45;;
71558;SDS011;59382;43.852;25.952;2023-05-07T10:44:24;6.00;;;1.85;;
71558;SDS011;59382;43.852;25.952;2023-05-07T10:47:10;3.97;;;1.25;;
71558;SDS011;59382;43.852;25.952;2023-05-07T10:54:41;11.85;;;2.28;;
71558;SDS011;59382;43.852;25.952;2023-05-07T10:59:57;1.98;;;1.38;;
71558;SDS011;59382;43.852;25.952;2023-05-07T11:02:23;2.67;;;1.67;;
71558;SDS011;59382;43.852;25.952;2023-05-07T11:05:23;5.00;;;1.67;;
71558;SDS011;59382;43.852;25.952;2023-05-07T11:07:59;5.60;;;1.63;;
71558;SDS011;59382;43.852;25.952;2023-05-07T11:13:13;6.93;;;1.25;;
71558;SDS011;59382;43.852;25.952;2023-05-07T11:15:40;8.18;;;2.33;;
71558;SDS011;59382;43.852;25.952;2023-05-07T11:18:10;4.53;;;1.50;;
71558;SDS011;59382;43.852;25.952;2023-05-07T11:20:50;1.75;;;1.30;;
71558;SDS011;59382;43.852;25.952;2023-05-07T11:26:04;1.92;;;1.02;;
71558;SDS011;59382;43.852;25.952;2023-05-07T11:28:32;4.82;;;1.63;;
71558;SDS011;59382;43.852;25.952;2023-05-07T11:31:05;2.63;;;1.42;;
71558;SDS011;59382;43.852;25.952;2023-05-07T11:33:32;3.63;;;1.65;;
71558;SDS011;59382;43.852;25.952;2023-05-07T11:35:59;3.83;;;1.65;;
71558;SDS011;59382;43.852;25.952;2023-05-07T11:38:28;3.22;;;1.40;;
71558;SDS011;59382;43.852;25.952;2023-05-07T11:43:25;2.95;;;1.50;;
71558;SDS011;59382;43.852;25.952;2023-05-07T11:45:52;6.10;;;2.92;;
71558;SDS011;59382;43.852;25.952;2023-05-07T11:48:18;2.58;;;1.33;;
71558;SDS011;59382;43.852;25.952;2023-05-07T11:50:50;8.20;;;2.63;;
71558;SDS011;59382;43.852;25.952;2023-05-07T11:53:18;5.28;;;1.45;;
71558;SDS011;59382;43.852;25.952;2023-05-07T11:55:45;4.03;;;1.42;;
71558;SDS011;59382;43.852;25.952;2023-05-07T11:58:12;10.77;;;3.00;;
71558;SDS011;59382;43.852;25.952;2023-05-07T12:00:51;6.00;;;2.00;;
71558;SDS011;59382;43.852;25.952;2023-05-07T12:03:18;6.85;;;1.95;;
71558;SDS011;59382;43.852;25.952;2023-05-07T12:05:45;3.08;;;1.35;;
71558;SDS011;59382;43.852;25.952;2023-05-07T12:08:17;8.27;;;2.53;;
71558;SDS011;59382;43.852;25.952;2023-05-07T12:10:44;3.22;;;1.95;;
71558;SDS011;59382;43.852;25.952;2023-05-07T12:13:17;4.63;;;2.13;;
71558;SDS011;59382;43.852;25.952;2023-05-07T12:15:43;9.82;;;3.10;;
71558;SDS011;59382;43.852;25.952;2023-05-07T12:18:10;2.65;;;1.40;;
71558;SDS011;59382;43.852;25.952;2023-05-07T12:20:36;4.30;;;1.50;;
71558;SDS011;59382;43.852;25.952;2023-05-07T12:23:03;5.40;;;1.58;;
71558;SDS011;59382;43.852;25.952;2023-05-07T12:25:32;2.45;;;1.67;;
71558;SDS011;59382;43.852;25.952;2023-05-07T12:28:00;3.08;;;1.10;;
71558;SDS011;59382;43.852;25.952;2023-05-07T12:30:26;6.03;;;1.50;;
71558;SDS011;59382;43.852;25.952;2023-05-07T12:32:53;2.58;;;1.63;;
71558;SDS011;59382;43.852;25.952;2023-05-07T12:35:28;1.73;;;1.30;;
71558;SDS011;59382;43.852;25.952;2023-05-07T12:37:58;5.05;;;1.58;;
71558;SDS011;59382;43.852;25.952;2023-05-07T12:40:38;3.45;;;1.48;;
71558;SDS011;59382;43.852;25.952;2023-05-07T12:43:05;3.58;;;1.77;;
71558;SDS011;59382;43.852;25.952;2023-05-07T12:45:31;5.72;;;2.35;;
71558;SDS011;59382;43.852;25.952;2023-05-07T12:48:01;4.80;;;1.42;;
71558;SDS011;59382;43.852;25.952;2023-05-07T12:50:30;6.65;;;1.42;;
71558;SDS011;59382;43.852;25.952;2023-05-07T12:52:57;2.55;;;1.67;;
71558;SDS011;59382;43.852;25.952;2023-05-07T12:55:23;2.13;;;1.77;;
71558;SDS011;59382;43.852;25.952;2023-05-07T12:57:49;2.15;;;1.40;;
71558;SDS011;59382;43.852;25.952;2023-05-07T13:00:31;9.00;;;2.00;;
71558;SDS011;59382;43.852;25.952;2023-05-07T13:02:58;3.17;;;1.67;;
71558;SDS011;59382;43.852;25.952;2023-05-07T13:05:23;2.58;;;1.60;;
71558;SDS011;59382;43.852;25.952;2023-05-07T13:07:55;3.20;;;1.70;;
71558;SDS011;59382;43.852;25.952;2023-05-07T13:10:24;4.95;;;1.85;;
71558;SDS011;59382;43.852;25.952;2023-05-07T13:12:50;2.90;;;1.70;;
71558;SDS011;59382;43.852;25.952;2023-05-07T13:15:19;1.90;;;1.42;;
71558;SDS011;59382;43.852;25.952;2023-05-07T13:17:46;8.55;;;2.28;;
71558;SDS011;59382;43.852;25.952;2023-05-07T13:20:12;7.32;;;1.75;;
71558;SDS011;59382;43.852;25.952;2023-05-07T13:22:38;7.32;;;1.98;;
71558;SDS011;59382;43.852;25.952;2023-05-07T13:25:04;3.67;;;1.45;;
71558;SDS011;59382;43.852;25.952;2023-05-07T13:27:30;3.17;;;1.40;;
71558;SDS011;59382;43.852;25.952;2023-05-07T13:29:56;6.03;;;1.70;;
71558;SDS011;59382;43.852;25.952;2023-05-07T13:32:22;2.28;;;1.58;;
71558;SDS011;59382;43.852;25.952;2023-05-07T13:34:47;4.13;;;1.50;;
71558;SDS011;59382;43.852;25.952;2023-05-07T13:37:13;4.07;;;1.90;;
71558;SDS011;59382;43.852;25.952;2023-05-07T13:39:38;2.33;;;1.35;;
71558;SDS011;59382;43.852;25.952;2023-05-07T13:42:04;2.70;;;1.77;;
71558;SDS011;59382;43.852;25.952;2023-05-07T13:44:29;7.10;;;1.95;;
71558;SDS011;59382;43.852;25.952;2023-05-07T13:46:55;5.07;;;1.60;;
71558;SDS011;59382;43.852;25.952;2023-05-07T13:49:20;3.53;;;1.50;;
71558;SDS011;59382;43.852;25.952;2023-05-07T13:51:46;5.50;;;1.50;;
71558;SDS011;59382;43.852;25.952;2023-05-07T13:54:11;3.90;;;1.30;;
71558;SDS011;59382;43.852;25.952;2023-05-07T13:56:37;3.58;;;1.70;;
71558;SDS011;59382;43.852;25.952;2023-05-07T13:59:02;3.05;;;1.40;;
71558;SDS011;59382;43.852;25.952;2023-05-07T14:01:28;2.47;;;1.50;;
71558;SDS011;59382;43.852;25.952;2023-05-07T14:03:53;2.15;;;1.23;;
71558;SDS011;59382;43.852;25.952;2023-05-07T14:06:20;2.15;;;1.45;;
71558;SDS011;59382;43.852;25.952;2023-05-07T14:08:46;4.47;;;1.60;;
71558;SDS011;59382;43.852;25.952;2023-05-07T14:11:12;2.50;;;1.17;;
71558;SDS011;59382;43.852;25.952;2023-05-07T14:13:37;2.42;;;1.45;;
71558;SDS011;59382;43.852;25.952;2023-05-07T14:16:03;1.88;;;1.70;;
71558;SDS011;59382;43.852;25.952;2023-05-07T14:18:30;2.35;;;1.48;;
71558;SDS011;59382;43.852;25.952;2023-05-07T14:20:55;2.03;;;1.67;;
71558;SDS011;59382;43.852;25.952;2023-05-07T14:23:21;3.35;;;1.63;;
71558;SDS011;59382;43.852;25.952;2023-05-07T14:25:51;2.78;;;1.90;;
71558;SDS011;59382;43.852;25.952;2023-05-07T14:28:17;5.78;;;2.00;;
71558;SDS011;59382;43.852;25.952;2023-05-07T14:30:43;3.58;;;1.88;;
71558;SDS011;59382;43.852;25.952;2023-05-07T14:33:09;7.15;;;2.22;;
71558;SDS011;59382;43.852;25.952;2023-05-07T14:35:35;2.30;;;1.55;;
71558;SDS011;59382;43.852;25.952;2023-05-07T14:38:01;6.60;;;1.80;;
71558;SDS011;59382;43.852;25.952;2023-05-07T14:40:26;2.75;;;1.70;;
71558;SDS011;59382;43.852;25.952;2023-05-07T14:42:52;3.40;;;1.67;;
71558;SDS011;59382;43.852;25.952;2023-05-07T14:45:17;12.50;;;2.97;;
71558;SDS011;59382;43.852;25.952;2023-05-07T14:47:43;4.15;;;2.92;;
71558;SDS011;59382;43.852;25.952;2023-05-07T14:50:09;6.95;;;2.30;;